Flight Track Log - Related Links

Times and Time Zones

All times are in EDT time to prevent confusion due to time zone crossing. See the GJS3615 flight status page for this flight to view local times or setup timezone preferences in your user account.

Time Position Orientation Groundspeed Altitude Reporting Facility
EDT Latitude Longitude Course Direction KTS MPH feet Rate Location/Type
Wed 10:27:07 AM 42.0000 -87.8500 90° East 178 205 3,200  Level Chicago TRACON
Wed 10:28:02 AM 42.0000 -87.7667 90° East 243 280 4,800 893 Climbing Chicago TRACON
Wed 10:29:08 AM 42.0167 -87.6667 77° East 261 300 5,000 1,000 Climbing Chicago TRACON
Wed 10:30:02 AM 42.0167 -87.5667 90° East 268 308 6,800 2,279 Climbing Chicago TRACON
Wed 10:31:00 AM 41.9333 -87.1214 90° East  Level FlightAware Approximate
Wed 10:32:00 AM 41.9333 -86.9698 90° East  Level FlightAware Approximate
Wed 10:32:07 AM 41.9903 -87.3631 100° East 303 349 11,800  Level Chicago Center
Wed 10:33:08 AM 41.9731 -87.2472 101° East 314 361 13,900 1,756 Climbing Chicago Center
Wed 10:34:10 AM 41.9539 -87.1194 101° East 342 394 15,400 1,935 Climbing Chicago Center
Wed 10:35:12 AM 41.9444 -86.9544 94° East 368 423 17,900 1,756 Climbing Chicago Center
Wed 10:36:13 AM 41.9464 -86.8108 89° East 384 442 19,000 1,171 Climbing Chicago Center
Wed 10:37:15 AM 41.9500 -86.6744 88° East 401 461 20,300 1,355 Climbing Chicago Center
Wed 10:38:17 AM 41.9347 -86.5206 98° East 417 480 21,800 1,415 Climbing Chicago Center
Wed 10:39:18 AM 41.9119 -86.3631 101° East 430 495 23,200 1,415 Climbing Chicago Center
Wed 10:40:20 AM 41.8822 -86.1683 102° East 443 510 24,700 1,306 Climbing Chicago Center
Wed 10:41:22 AM 41.8575 -86.0006 101° East 457 526 25,900 1,171 Climbing Chicago Center
Wed 10:42:23 AM 41.8308 -85.8289 102° East 467 537 27,100 1,171 Climbing Chicago Center
Wed 10:43:25 AM 41.8047 -85.6547 101° East 474 545 28,300 1,065 Climbing Chicago Center
Wed 10:44:27 AM 41.7789 -85.4764 101° East 479 551 29,300 927 Climbing Chicago Center
Wed 10:45:28 AM 41.7492 -85.2900 102° East 492 566 30,200 878 Climbing Chicago Center
Wed 10:46:30 AM 41.7197 -85.1069 102° East 496 571 31,100 957 Climbing Chicago Center
Wed 10:47:02 AM 41.7019 -84.9947 102° East 491 565 31,700 968 Climbing Cleveland Center
Wed 10:48:03 AM 41.6733 -84.8119 102° East 491 565 32,600 893 Climbing Cleveland Center
Wed 10:49:03 AM 41.6614 -84.6275 95° East 491 565 33,500 900 Climbing Cleveland Center
Wed 10:50:03 AM 41.6531 -84.4436 93° East 491 565 34,400 900 Climbing Cleveland Center
Wed 10:51:03 AM 41.6467 -84.2597 93° East 496 571 35,300 850 Climbing Cleveland Center
Wed 10:52:03 AM 41.6331 -84.0950 96° East 490 564 36,100 857 Climbing Cleveland Center
Wed 10:53:02 AM 41.6239 -83.9139 94° East 490 564 37,000 450 Climbing Cleveland Center
Wed 10:54:03 AM 41.6061 -83.7325 97° East 490 564 37,000  Level Cleveland Center
Wed 10:55:02 AM 41.5372 -83.5792 121° Southeast 479 551 37,000  Level Cleveland Center
Wed 10:56:03 AM 41.4147 -83.4711 147° Southeast 460 529 37,000  Level Cleveland Center
Wed 10:57:02 AM 41.3022 -83.3886 151° Southeast 460 529 37,000  Level Cleveland Center
Wed 10:58:02 AM 41.1894 -83.3119 153° Southeast 460 529 37,000  Level Cleveland Center
Wed 11:00:21 AM 40.9297 -83.1250 151° Southeast 467 537 37,000  Level Indianapolis Center
Wed 11:01:22 AM 40.8139 -83.0439 152° Southeast 469 540 37,000  Level Indianapolis Center
Wed 11:02:24 AM 40.6981 -82.9647 153° Southeast 467 537 37,000  Level Indianapolis Center
Wed 11:03:25 AM 40.5872 -82.8881 152° Southeast 451 519 37,000  Level Indianapolis Center
Wed 11:04:27 AM 40.4839 -82.8175 153° Southeast 449 517 37,000  Level Indianapolis Center
Wed 11:05:28 AM 40.3642 -82.7350 152° Southeast 451 519 37,000  Level Indianapolis Center
Wed 11:06:30 AM 40.2369 -82.6472 152° Southeast 460 529 37,000  Level Indianapolis Center
Wed 11:07:31 AM 40.1203 -82.5733 154° Southeast 461 531 37,000  Level Indianapolis Center
Wed 11:08:32 AM 39.9981 -82.5175 161° South 459 528 37,000  Level Indianapolis Center
Wed 11:09:33 AM 39.8756 -82.4611 161° South 460 529 37,000  Level Indianapolis Center
Wed 11:10:35 AM 39.7531 -82.4033 160° South 462 532 37,000 -293 Level Indianapolis Center
Wed 11:11:36 AM 39.6344 -82.3497 161° South 446 513 36,400 -787 Descending Indianapolis Center
Wed 11:12:37 AM 39.5267 -82.2994 160° South 408 470 35,400 -927 Descending Indianapolis Center
Wed 11:13:39 AM 39.4161 -82.2508 161° South 423 487 34,500 -927 Descending Indianapolis Center
Wed 11:14:40 AM 39.3008 -82.1978 160° South 437 503 33,500 -738 Descending Indianapolis Center
Wed 11:15:41 AM 39.1831 -82.1456 161° South 446 513 33,000 -244 Descending Indianapolis Center
Wed 11:16:43 AM 39.0786 -82.0592 147° Southeast 451 519 33,000  Level Indianapolis Center
Wed 11:17:44 AM 38.9861 -81.9500 137° Southeast 454 522 33,000  Level Indianapolis Center
Wed 11:18:45 AM 38.8736 -81.8172 137° Southeast 456 525 33,000  Level Indianapolis Center
Wed 11:19:47 AM 38.7797 -81.7078 138° Southeast 458 527 33,000  Level Indianapolis Center
Wed 11:20:48 AM 38.6875 -81.5997 138° Southeast 455 524 33,000  Level Indianapolis Center
Wed 11:21:50 AM 38.5922 -81.4908 138° Southeast 458 527 33,000  Level Indianapolis Center
Wed 11:22:51 AM 38.5053 -81.3889 137° Southeast 455 524 33,000  Level Indianapolis Center
Wed 11:23:52 AM 38.3922 -81.2589 138° Southeast 457 526 33,000  Level Indianapolis Center
Wed 11:24:54 AM 38.2969 -81.1492 138° Southeast 460 529 33,000 -447 Level Indianapolis Center
Wed 11:25:26 AM 38.2411 -81.0936 142° Southeast 470 541 32,300 -1,630 Descending Washington Center
Wed 11:26:26 AM 38.1539 -80.9919 137° Southeast 483 556 30,500 -1,800 Descending Washington Center
Wed 11:26:56 AM 38.1022 -80.9247 134° Southeast 478 550 29,600 -1,761 Descending Indianapolis Center
Wed 11:27:58 AM 38.0044 -80.8158 139° Southeast 469 540 27,800 -1,667 Descending Indianapolis Center
Wed 11:28:26 AM 37.9611 -80.7728 142° Southeast 470 541 27,100 -545 Descending Washington Center
Wed 11:29:26 AM 37.8617 -80.6606 138° Southeast 455 524 27,000 -350 Descending Washington Center
Wed 11:30:26 AM 37.7700 -80.5572 138° Southeast 447 514 26,400 -850 Descending Washington Center
Wed 11:31:26 AM 37.6744 -80.4511 139° Southeast 447 514 25,300 -1,400 Descending Washington Center
Wed 11:32:26 AM 37.5825 -80.3458 138° Southeast 447 514 23,600 -1,750 Descending Washington Center
Wed 11:33:26 AM 37.5028 -80.2569 138° Southeast 441 507 21,800 -1,750 Descending Washington Center
Wed 11:34:26 AM 37.4147 -80.1547 137° Southeast 441 507 20,100 -1,400 Descending Washington Center
Wed 11:35:26 AM 37.3219 -80.0736 145° Southeast 431 496 19,000 -550 Descending Washington Center
Wed 11:36:26 AM 37.2014 -80.0639 176° South 392 451 19,000 -150 Level Washington Center
Wed 11:37:26 AM 37.0911 -80.0547 176° South 390 449 18,700 -600 Descending Washington Center
Wed 11:38:26 AM 36.9828 -80.0486 177° South 390 449 17,800 -900 Descending Washington Center
Wed 11:40:00 AM 36.8059 -80.0260 172° South  Level FlightAware Approximate
Wed 11:47:00 AM 36.1013 -79.9411 28° Northeast  Level Estimated
Wed 11:48:00 AM 36.1000 -79.9333 28° Northeast  Level FlightAware Approximate
Wed 11:49:00 AM 36.1013 -79.9411 28° Northeast  Level Estimated
Wed 11:50:00 AM 36.1000 -79.9333 28° Northeast  Level FlightAware Approximate
Wed 11:51:00 AM 36.1013 -79.9411 28° Northeast  Level Estimated
Wed 11:52:00 AM 36.1000 -79.9333 28° Northeast  Level FlightAware Approximate

Login

Don't have an account? Register now (free) for customized features, flight alerts, and more!